Harvest Peace — V7VE7 — position and weather

sailwx.info

Track history (hours):
 
Tides and Currents Weather Stations Pressure Air Temp Water Temp Dewpoint Dewpoint Depression Visibility Wind Speed Wind Dir Waves Ship Positions

Harvest Peace

Last reported at 2014-Nov-24 19:11 UTC. Time now 2014-Nov-26 08:52 UTC.
Position N 37°24' W 023°42'.

Length 225 m; draft 12.4 m.

Type: Cargo ship. MMSI: 538004103.

Date/timePositionNaut miles runAvg speedWind from/ knotsBaromVisibWave heightAir tempDewpointWater temp
2014-Nov-24 19:11N 37°24' W 023°42'710.8
2014-Nov-24 18:33N 37°24' W 023°50'1110.9
2014-Nov-24 17:33N 37°24' W 024°04'1110.6
2014-Nov-24 16:33N 37°25' W 024°17'1110.9
2014-Nov-24 15:34N 37°26' W 024°31'1111.3
2014-Nov-24 14:33N 37°27' W 024°45'1111.4
2014-Nov-24 13:34N 37°28' W 024°59'1111.3
2014-Nov-24 12:33N 37°29' W 025°14'1111.1
2014-Nov-24 11:33N 37°30' W 025°28'1111.3
2014-Nov-24 10:34N 37°30' W 025°42'1111.2
2014-Nov-24 09:33N 37°30' W 025°56'1110.8
2014-Nov-24 08:33N 37°29' W 026°10'1010.4
2014-Nov-24 07:33N 37°29' W 026°23'1111.4
2014-Nov-24 06:33N 37°29' W 026°37'1110.8
2014-Nov-24 05:34N 37°29' W 026°51'1010.5
2014-Nov-24 04:33N 37°29' W 027°04'1110.7
2014-Nov-24 03:33N 37°28' W 027°17'1111.1
2014-Nov-24 02:34N 37°28' W 027°31'1110.9
2014-Nov-24 01:33N 37°28' W 027°45'1111.0
2014-Nov-24 00:33N 37°28' W 027°59'1110.7
2014-Nov-23 23:33N 37°28' W 028°13'1110.6
2014-Nov-23 22:33N 37°27' W 028°26'1110.8
2014-Nov-23 21:33N 37°27' W 028°39'1110.8
2014-Nov-23 20:33N 37°27' W 028°53'1110.7
2014-Nov-23 19:33N 37°27' W 029°06'1111.0
2014-Nov-23 18:33N 37°26' W 029°20'1111.0
2014-Nov-23 17:33N 37°26' W 029°34'1110.9
2014-Nov-23 16:31N 37°26' W 029°48'  
Track history (hours):
 
Tides and Currents Weather Stations Pressure Air Temp Water Temp Dewpoint Dewpoint Depression Visibility Wind Speed Wind Dir Waves Ship Positions

Harvest Peace

Last reported at 2014-Nov-24 19:11 UTC. Time now 2014-Nov-26 08:52 UTC.
Position N 37°24' W 023°42'.

Length 225 m; draft 12.4 m.

Type: Cargo ship. MMSI: 538004103.

Date/timePositionNaut miles runAvg speedWind from/ knotsBaromVisibWave heightAir tempDewpointWater temp
2014-Nov-24 19:11N 37°24' W 023°42'710.8
2014-Nov-24 18:33N 37°24' W 023°50'1110.9
2014-Nov-24 17:33N 37°24' W 024°04'1110.6
2014-Nov-24 16:33N 37°25' W 024°17'1110.9
2014-Nov-24 15:34N 37°26' W 024°31'1111.3
2014-Nov-24 14:33N 37°27' W 024°45'1111.4
2014-Nov-24 13:34N 37°28' W 024°59'1111.3
2014-Nov-24 12:33N 37°29' W 025°14'1111.1
2014-Nov-24 11:33N 37°30' W 025°28'1111.3
2014-Nov-24 10:34N 37°30' W 025°42'1111.2
2014-Nov-24 09:33N 37°30' W 025°56'1110.8
2014-Nov-24 08:33N 37°29' W 026°10'1010.4
2014-Nov-24 07:33N 37°29' W 026°23'1111.4
2014-Nov-24 06:33N 37°29' W 026°37'1110.8
2014-Nov-24 05:34N 37°29' W 026°51'1010.5
2014-Nov-24 04:33N 37°29' W 027°04'1110.7
2014-Nov-24 03:33N 37°28' W 027°17'1111.1
2014-Nov-24 02:34N 37°28' W 027°31'1110.9
2014-Nov-24 01:33N 37°28' W 027°45'1111.0
2014-Nov-24 00:33N 37°28' W 027°59'1110.7
2014-Nov-23 23:33N 37°28' W 028°13'1110.6
2014-Nov-23 22:33N 37°27' W 028°26'1110.8
2014-Nov-23 21:33N 37°27' W 028°39'1110.8
2014-Nov-23 20:33N 37°27' W 028°53'1110.7
2014-Nov-23 19:33N 37°27' W 029°06'1111.0
2014-Nov-23 18:33N 37°26' W 029°20'1111.0
2014-Nov-23 17:33N 37°26' W 029°34'1110.9
2014-Nov-23 16:31N 37°26' W 029°48'  

Dump ship's entire track history